Time;durP1;ratioP1;P1;durP2;ratioP2;P2;SDS_P1;SDS_P2;PMS_P1;PMS_P2;Temp;Humidity;BMP_temperature;BMP_pressure;BME280_temperature;BME280_humidity;BME280_pressure;Samples;Min_cycle;Max_cycle;Signal;HPM_P1;HPM_P2
2021/12/09 00:01:26;;;;;;;;;;;5.80;99.90;;;5.11;100.00;99269.59;4894263;29;19935;-74
2021/12/09 00:04:01;;;;;;;;;;;5.90;99.90;;;5.10;100.00;99273.09;4893019;29;19979;-73
2021/12/09 00:06:30;;;;;;;;;;;5.30;99.90;;;5.09;100.00;99271.38;4894272;29;20403;-73
2021/12/09 00:09:01;;;;;;;;;;;5.80;99.90;;;5.09;100.00;99268.78;4893820;29;19930;-74
2021/12/09 00:11:34;;;;;;;;;;;6.70;99.90;;;5.09;100.00;99267.03;4895436;29;19943;-74
2021/12/09 00:14:01;;;;;;;;;;;5.70;99.90;;;5.10;100.00;99278.31;4894822;29;19931;-73
2021/12/09 00:16:28;;;;;;;;;;;5.30;99.90;;;5.11;100.00;99278.31;4910263;29;19927;-74
2021/12/09 00:18:55;;;;;;;;;;;5.40;99.90;;;5.10;100.00;99280.94;4894088;29;19927;-73
2021/12/09 00:21:25;;;;;;;;;;;7.10;99.90;;;5.06;100.00;99279.28;4894229;29;19924;-74
2021/12/09 00:23:52;;;;;;;;;;;5.30;99.90;;;5.10;100.00;99288.75;4893814;29;19927;-74
2021/12/09 00:26:19;;;;;;;;;;;5.40;99.90;;;5.10;100.00;99291.34;4878797;29;19927;-74
2021/12/09 00:28:48;;;;;;;;;;;7.30;99.90;;;5.07;100.00;99287.09;4893497;29;20026;-74
2021/12/09 00:31:17;;;;;;;;;;;5.40;99.90;;;5.06;100.00;99290.53;4893973;29;19923;-73
2021/12/09 00:33:46;;;;;;;;;;;5.40;99.90;;;5.08;100.00;99291.41;4893227;29;19934;-74
2021/12/09 00:36:17;;;;;;;;;;;5.40;99.90;;;5.10;100.00;99293.97;4894075;29;19927;-74
2021/12/09 00:39:03;;;;;;;;;;;6.80;99.90;;;5.07;100.00;99291.41;4894006;29;19923;-73
2021/12/09 00:41:30;;;;;;;;;;;5.60;99.90;;;5.11;100.00;99293.94;4893273;29;19923;-74
2021/12/09 00:43:57;;;;;;;;;;;6.80;99.90;;;5.11;100.00;99293.06;4893017;29;19923;-74
2021/12/09 00:46:24;;;;;;;;;;;5.30;99.90;;;5.04;100.00;99297.53;4878693;29;19931;-73
2021/12/09 00:48:52;;;;;;;;;;;5.30;99.90;;;5.09;100.00;99293.13;4894496;29;19929;-73
2021/12/09 00:51:19;;;;;;;;;;;6.60;99.90;;;5.09;100.00;99295.72;4877939;29;19927;-74
2021/12/09 00:53:46;;;;;;;;;;;5.40;99.90;;;4.93;100.00;99291.69;4893043;29;19924;-74
2021/12/09 00:56:16;;;;;;;;;;;5.30;99.90;;;4.98;100.00;99297.66;4893134;29;19927;-74
2021/12/09 00:58:43;;;;;;;;;;;6.40;99.90;;;4.96;100.00;99297.69;4878375;29;19928;-74
2021/12/09 01:01:11;;;;;;;;;;;5.30;99.90;;;4.88;100.00;99298.72;4894939;29;20017;-73
2021/12/09 01:03:39;;;;;;;;;;;6.50;99.90;;;4.89;100.00;99293.47;4892430;29;19927;-74
2021/12/09 01:06:06;;;;;;;;;;;6.00;99.90;;;4.86;100.00;99300.50;4893709;29;19923;-74
2021/12/09 01:08:42;;;;;;;;;;;5.30;99.90;;;4.83;100.00;99299.66;4893831;29;19928;-73
2021/12/09 01:11:12;;;;;;;;;;;7.00;99.90;;;4.77;100.00;99306.72;4893162;29;19928;-74
2021/12/09 01:13:41;;;;;;;;;;;5.10;99.90;;;4.70;100.00;99312.94;4892903;29;19934;-74
2021/12/09 01:16:09;;;;;;;;;;;7.20;99.90;;;4.66;100.00;99312.13;4894717;29;20397;-74
2021/12/09 01:18:37;;;;;;;;;;;5.10;99.90;;;4.64;100.00;99304.31;4892995;29;19931;-74
2021/12/09 01:21:05;;;;;;;;;;;5.10;99.90;;;4.60;100.00;99302.66;4893464;29;19934;-73
2021/12/09 01:23:33;;;;;;;;;;;5.00;99.90;;;4.54;100.00;99303.63;4893288;29;19927;-74
2021/12/09 01:26:03;;;;;;;;;;;4.90;99.90;;;4.51;100.00;99313.22;4893975;29;19927;-74
2021/12/09 01:28:36;;;;;;;;;;;5.00;99.90;;;4.45;100.00;99314.19;4892895;29;19923;-74
2021/12/09 01:31:06;;;;;;;;;;;5.00;99.90;;;4.46;100.00;99322.84;4882405;29;19928;-74
2021/12/09 01:33:34;;;;;;;;;;;4.80;99.90;;;4.42;100.00;99322.03;4874611;29;20396;-74
2021/12/09 01:36:02;;;;;;;;;;;4.80;99.90;;;4.38;100.00;99326.47;4875481;29;20412;-74
2021/12/09 01:38:31;;;;;;;;;;;4.80;99.90;;;4.25;100.00;99322.31;4874200;29;19927;-74
2021/12/09 01:40:59;;;;;;;;;;;5.50;99.90;;;4.27;100.00;99325.75;4869181;29;19935;-73
2021/12/09 01:43:38;;;;;;;;;;;4.70;99.90;;;4.25;100.00;99328.38;4891839;29;19928;-73
2021/12/09 01:46:08;;;;;;;;;;;5.30;99.90;;;4.23;100.00;99332.75;4892833;29;19927;-74
2021/12/09 01:48:36;;;;;;;;;;;4.70;99.90;;;4.26;100.00;99337.06;4887382;29;19934;-73
2021/12/09 01:51:04;;;;;;;;;;;5.50;99.90;;;4.28;100.00;99340.50;4879721;29;19937;-73
2021/12/09 01:53:31;;;;;;;;;;;4.70;99.90;;;4.20;100.00;99343.22;4891770;29;19927;-74
2021/12/09 01:56:04;;;;;;;;;;;4.50;99.90;;;4.24;100.00;99346.63;4893421;29;19935;-73
2021/12/09 01:58:31;;;;;;;;;;;5.60;99.90;;;4.25;100.00;99343.16;4877451;29;19923;-74
2021/12/09 02:00:57;;;;;;;;;;;4.50;99.90;;;4.24;100.00;99344.03;4892424;29;19927;-74
2021/12/09 02:03:25;;;;;;;;;;;5.40;99.90;;;4.29;100.00;99347.41;4891146;29;20014;-74
2021/12/09 02:05:53;;;;;;;;;;;4.70;99.90;;;4.28;100.00;99343.09;4892696;29;19975;-74
2021/12/09 02:08:20;;;;;;;;;;;4.60;99.90;;;4.30;100.00;99337.88;4893605;29;19931;-73
2021/12/09 02:10:49;;;;;;;;;;;4.90;99.90;;;4.30;100.00;99346.53;4891572;29;20301;-74
2021/12/09 02:13:16;;;;;;;;;;;5.30;99.90;;;4.33;100.00;99343.88;4907015;29;19931;-73
2021/12/09 02:15:46;;;;;;;;;;;4.70;99.90;;;4.32;100.00;99336.94;4892222;29;19930;-74
2021/12/09 02:18:14;;;;;;;;;;;4.60;99.90;;;4.35;100.00;99343.88;4891747;29;19975;-74
2021/12/09 02:20:42;;;;;;;;;;;4.70;99.90;;;4.32;100.00;99336.94;4892183;29;20014;-73
2021/12/09 02:23:11;;;;;;;;;;;4.70;99.90;;;4.27;100.00;99338.78;4891450;29;19927;-74
2021/12/09 02:25:45;;;;;;;;;;;4.60;99.90;;;4.30;100.00;99337.88;4891821;29;20426;-74
2021/12/09 02:28:15;;;;;;;;;;;6.90;99.90;;;4.30;100.00;99340.47;4879011;29;20022;-73
2021/12/09 02:30:43;;;;;;;;;;;4.60;99.90;;;4.32;100.00;99333.50;4896154;29;20380;-74
2021/12/09 02:33:10;;;;;;;;;;;4.80;99.90;;;4.33;100.00;99336.06;4894847;29;19934;-74
2021/12/09 02:35:38;;;;;;;;;;;4.60;99.90;;;4.34;100.00;99335.19;4896012;29;19923;-73
2021/12/09 02:38:07;;;;;;;;;;;4.60;99.90;;;4.32;100.00;99336.94;4896939;29;19975;-73
2021/12/09 02:40:35;;;;;;;;;;;4.80;99.90;;;4.29;100.00;99333.53;4895241;29;19956;-74
2021/12/09 02:43:04;;;;;;;;;;;5.90;99.90;;;4.27;100.00;99349.19;4896286;29;20401;-74
2021/12/09 02:45:31;;;;;;;;;;;4.60;99.90;;;4.19;100.00;99346.69;4896406;29;19929;-73
2021/12/09 02:47:59;;;;;;;;;;;4.40;99.90;;;4.16;100.00;99362.38;4896366;29;20420;-74
2021/12/09 02:50:26;;;;;;;;;;;4.70;99.90;;;4.15;100.00;99367.59;4895345;29;19927;-73
2021/12/09 02:52:53;;;;;;;;;;;4.50;99.90;;;4.03;100.00;99374.66;4895061;29;19927;-74
2021/12/09 02:55:19;;;;;;;;;;;6.90;99.90;;;4.03;100.00;99373.81;4910970;29;19927;-73
2021/12/09 02:57:50;;;;;;;;;;;4.40;99.90;;;3.96;100.00;99378.25;4896808;29;20001;-74
2021/12/09 03:00:18;;;;;;;;;;;4.40;99.90;;;3.92;100.00;99384.38;4895775;29;20313;-73
2021/12/09 03:02:45;;;;;;;;;;;4.40;99.90;;;3.89;100.00;99387.88;4894625;29;19931;-74
2021/12/09 03:05:12;;;;;;;;;;;4.20;99.90;;;3.83;100.00;99398.38;4895879;29;20309;-74
2021/12/09 03:07:41;;;;;;;;;;;5.90;99.90;;;3.78;100.00;99402.75;4894801;29;19931;-73
2021/12/09 03:10:19;;;;;;;;;;;4.10;99.90;;;3.76;100.00;99404.50;4879092;29;20583;-74
2021/12/09 03:12:48;;;;;;;;;;;4.20;99.90;;;3.76;100.00;99413.19;4894987;29;19938;-74
2021/12/09 03:15:16;;;;;;;;;;;4.10;99.90;;;3.70;100.00;99410.63;4895541;29;19927;-74
2021/12/09 03:17:43;;;;;;;;;;;4.10;99.90;;;3.67;100.00;99403.75;4895360;29;20077;-73
2021/12/09 03:20:12;;;;;;;;;;;4.00;99.90;;;3.68;100.00;99402.88;4880784;29;19927;-74
2021/12/09 03:22:40;;;;;;;;;;;4.10;99.90;;;3.66;100.00;99409.81;4894737;29;19923;-74
2021/12/09 03:25:12;;;;;;;;;;;4.20;99.90;;;3.64;100.00;99406.34;4895130;29;19927;-73
2021/12/09 03:27:39;;;;;;;;;;;4.00;99.90;;;3.59;100.00;99410.75;4895847;29;19927;-74
2021/12/09 03:30:10;;;;;;;;;;;4.00;99.90;;;3.59;100.00;99417.69;4866312;29;19924;-73
2021/12/09 03:32:37;;;;;;;;;;;4.00;99.90;;;3.60;100.00;99422.03;4856928;29;20492;-74
2021/12/09 03:35:05;;;;;;;;;;;3.90;99.90;;;3.61;100.00;99423.75;4858777;29;19932;-73
2021/12/09 03:37:33;;;;;;;;;;;3.90;99.90;;;3.62;100.00;99420.28;4893092;29;20703;-73
2021/12/09 03:40:00;;;;;;;;;;;4.00;99.90;;;3.56;100.00;99413.41;4893163;29;19928;-73
2021/12/09 03:42:29;;;;;;;;;;;3.90;99.90;;;3.62;100.00;99409.88;4895735;29;19924;-74
2021/12/09 03:44:57;;;;;;;;;;;4.70;99.90;;;3.60;100.00;99403.84;4894951;29;19943;-74
2021/12/09 03:47:26;;;;;;;;;;;4.30;99.90;;;3.59;100.00;99404.69;4864060;29;19951;-74
2021/12/09 03:49:54;;;;;;;;;;;3.90;99.90;;;3.55;100.00;99406.47;4894864;29;19931;-74
2021/12/09 03:52:22;;;;;;;;;;;3.90;99.90;;;3.50;100.00;99400.44;4877519;29;19934;-75
2021/12/09 03:54:49;;;;;;;;;;;5.40;99.90;;;3.47;100.00;99396.16;4876854;29;19935;-73
2021/12/09 03:57:16;;;;;;;;;;;3.90;99.90;;;3.47;100.00;99390.06;4896047;29;20013;-73
2021/12/09 03:59:43;;;;;;;;;;;4.60;99.90;;;3.45;100.00;99390.13;4894789;29;19950;-74
2021/12/09 04:02:12;;;;;;;;;;;5.10;99.90;;;3.36;100.00;99396.28;4894831;29;19923;-75
2021/12/09 04:04:39;;;;;;;;;;;5.50;99.90;;;3.37;100.00;99395.41;4894657;29;19955;-75
2021/12/09 04:07:06;;;;;;;;;;;3.80;99.90;;;3.37;100.00;99399.72;4896524;29;20282;-73
2021/12/09 04:09:33;;;;;;;;;;;3.60;99.90;;;3.31;100.00;99405.00;4894314;29;19927;-73
2021/12/09 04:12:00;;;;;;;;;;;3.60;99.90;;;3.27;100.00;99404.16;4895685;29;19945;-74
2021/12/09 04:14:28;;;;;;;;;;;3.60;99.90;;;3.25;100.00;99406.75;4893690;29;19927;-75
2021/12/09 04:16:56;;;;;;;;;;;3.60;99.90;;;3.21;100.00;99410.25;4894583;29;19931;-74
2021/12/09 04:19:23;;;;;;;;;;;3.60;99.90;;;3.21;100.00;99404.22;4895874;29;19943;-74
2021/12/09 04:21:50;;;;;;;;;;;6.30;99.90;;;3.15;100.00;99409.47;4894724;29;20297;-75
2021/12/09 04:24:17;;;;;;;;;;;3.70;99.90;;;3.06;100.00;99415.59;4893800;29;20479;-74
2021/12/09 04:26:48;;;;;;;;;;;3.60;99.90;;;3.10;100.00;99422.50;4895858;29;20031;-74
2021/12/09 04:29:15;;;;;;;;;;;3.20;99.90;;;3.05;100.00;99419.94;4894386;29;19931;-74
2021/12/09 04:31:43;;;;;;;;;;;4.70;99.90;;;3.04;100.00;99426.00;4894084;29;19923;-74
2021/12/09 04:34:10;;;;;;;;;;;3.40;99.90;;;3.05;100.00;99432.94;4894223;29;19973;-74
2021/12/09 04:36:38;;;;;;;;;;;3.40;99.90;;;3.03;100.00;99423.44;4895423;29;19927;-74
2021/12/09 04:39:07;;;;;;;;;;;4.00;99.90;;;2.97;100.00;99424.34;4893951;29;20431;-76
2021/12/09 04:41:34;;;;;;;;;;;3.50;99.90;;;2.96;100.00;99423.47;4894274;29;19930;-75
2021/12/09 04:44:01;;;;;;;;;;;5.30;99.90;;;2.92;100.00;99429.56;4862569;29;19971;-74
2021/12/09 04:46:28;;;;;;;;;;;3.40;99.90;;;2.90;100.00;99427.88;4894359;29;19934;-75
2021/12/09 04:48:56;;;;;;;;;;;3.30;99.90;;;2.93;100.00;99436.47;4893964;29;19932;-74
2021/12/09 04:51:23;;;;;;;;;;;5.50;99.90;;;2.84;100.00;99429.63;4877894;29;20404;-75
2021/12/09 04:53:50;;;;;;;;;;;5.70;99.90;;;2.84;100.00;99428.78;4892854;29;20301;-74
2021/12/09 04:56:17;;;;;;;;;;;3.30;99.90;;;2.85;100.00;99443.50;4893878;29;20396;-74
2021/12/09 04:58:44;;;;;;;;;;;4.00;99.90;;;2.80;100.00;99446.13;4893834;29;20004;-75
2021/12/09 05:01:11;;;;;;;;;;;3.10;99.90;;;2.84;100.00;99445.22;4890899;29;19930;-74
2021/12/09 05:03:38;;;;;;;;;;;3.30;99.90;;;2.89;100.00;99446.91;4894378;29;20312;-74
2021/12/09 05:06:05;;;;;;;;;;;4.40;99.90;;;2.90;100.00;99452.09;4894486;29;19931;-74
2021/12/09 05:08:33;;;;;;;;;;;3.20;99.90;;;2.87;100.00;99448.66;4909402;29;20001;-74
2021/12/09 05:13:34;;;;;;;;;;;4.80;99.90;;;2.86;100.00;99449.53;4884735;29;20385;-75
2021/12/09 05:16:03;;;;;;;;;;;4.60;99.90;;;2.89;100.00;99452.09;4890649;29;19966;-74
2021/12/09 05:18:32;;;;;;;;;;;3.30;99.90;;;2.89;100.00;99454.69;4875073;29;19934;-74
2021/12/09 05:21:03;;;;;;;;;;;3.90;99.90;;;2.92;100.00;99458.16;4871928;29;19959;-74
2021/12/09 05:23:30;;;;;;;;;;;3.20;99.90;;;2.89;100.00;99459.91;4899775;29;19932;-76
2021/12/09 05:25:57;;;;;;;;;;;4.70;99.90;;;2.90;100.00;99459.91;4891081;29;20332;-75
2021/12/09 05:28:31;;;;;;;;;;;3.30;99.90;;;2.87;100.00;99462.53;4893019;29;19938;-75
2021/12/09 05:33:46;;;;;;;;;;;5.10;99.90;;;2.87;100.00;99472.03;4872172;29;20034;-77
2021/12/09 05:36:13;;;;;;;;;;;4.00;99.90;;;2.88;100.00;99478.97;4877097;29;19934;-77
2021/12/09 05:38:40;;;;;;;;;;;3.30;99.90;;;2.88;100.00;99478.97;4871725;29;19928;-76
2021/12/09 05:41:08;;;;;;;;;;;3.00;99.90;;;2.89;100.00;99476.38;4876689;29;20042;-76
2021/12/09 05:43:36;;;;;;;;;;;3.20;99.90;;;2.90;100.00;99475.50;4856286;29;20342;-76
2021/12/09 05:46:04;;;;;;;;;;;3.30;99.90;;;2.92;100.00;99478.09;4855084;29;19931;-76
2021/12/09 05:48:32;;;;;;;;;;;5.30;99.90;;;2.92;100.00;99484.13;4865086;29;19928;-75
2021/12/09 05:50:59;;;;;;;;;;;3.20;99.90;;;2.93;100.00;99487.63;4882660;29;20436;-76
2021/12/09 05:53:26;;;;;;;;;;;3.80;99.90;;;2.92;100.00;99499.72;4892555;29;19994;-75
2021/12/09 05:55:53;;;;;;;;;;;3.30;99.90;;;2.92;100.00;99499.72;4893733;29;19950;-74
2021/12/09 05:58:22;;;;;;;;;;;3.10;99.90;;;2.94;100.00;99505.78;4876914;29;19934;-75
2021/12/09 06:00:51;;;;;;;;;;;3.30;99.90;;;2.96;100.00;99497.97;4877503;29;19927;-75
2021/12/09 06:03:20;;;;;;;;;;;3.20;99.90;;;2.99;100.00;99510.94;4891781;29;19976;-74
2021/12/09 06:05:49;;;;;;;;;;;3.30;99.90;;;3.03;100.00;99511.78;4892507;29;19927;-75
2021/12/09 06:08:16;;;;;;;;;;;3.20;99.90;;;3.03;100.00;99511.78;4892045;29;19923;-75
2021/12/09 06:10:43;;;;;;;;;;;3.30;99.90;;;3.08;100.00;99517.81;4892891;29;20324;-75
2021/12/09 06:13:10;;;;;;;;;;;3.30;99.90;;;3.05;100.00;99517.84;4891603;29;20567;-75
2021/12/09 06:15:37;;;;;;;;;;;4.00;99.90;;;3.11;100.00;99521.25;4892862;29;19935;-75
2021/12/09 06:18:04;;;;;;;;;;;3.40;99.90;;;3.11;100.00;99523.88;4889524;29;19927;-75
2021/12/09 06:20:31;;;;;;;;;;;3.20;99.90;;;3.17;100.00;99535.97;4867436;29;20536;-75
2021/12/09 06:22:58;;;;;;;;;;;3.40;99.90;;;3.18;100.00;99531.59;4888041;29;19934;-75
2021/12/09 06:25:25;;;;;;;;;;;3.90;99.90;;;3.15;100.00;99521.22;4870984;29;19939;-74
2021/12/09 06:27:54;;;;;;;;;;;3.40;99.90;;;3.18;100.00;99527.28;4878050;29;19924;-76
2021/12/09 06:30:22;;;;;;;;;;;4.00;99.90;;;3.22;100.00;99528.97;4872843;29;19930;-77
2021/12/09 06:32:49;;;;;;;;;;;3.30;99.90;;;3.26;100.00;99532.44;4854155;29;19934;-75
2021/12/09 06:35:17;;;;;;;;;;;5.40;99.90;;;3.24;100.00;99528.97;4855802;29;19924;-75
2021/12/09 06:37:46;;;;;;;;;;;3.50;99.90;;;3.24;100.00;99531.59;4854859;29;20413;-74
2021/12/09 06:40:16;;;;;;;;;;;3.50;99.90;;;3.26;100.00;99529.81;4874406;29;20324;-75
2021/12/09 06:42:45;;;;;;;;;;;5.10;99.90;;;3.27;100.00;99528.94;4881312;29;19928;-75
2021/12/09 06:45:13;;;;;;;;;;;3.50;99.90;;;3.30;100.00;99541.91;4879620;29;19924;-75
2021/12/09 06:47:40;;;;;;;;;;;4.70;99.90;;;3.31;100.00;99540.19;4869407;29;19928;-74
2021/12/09 06:50:10;;;;;;;;;;;3.50;99.90;;;3.30;100.00;99541.91;4890902;29;19927;-75
2021/12/09 06:52:37;;;;;;;;;;;3.60;99.90;;;3.31;100.00;99545.41;4891011;29;19927;-75
2021/12/09 06:55:06;;;;;;;;;;;4.80;99.90;;;3.39;100.00;99552.25;4892510;29;19938;-75
2021/12/09 06:57:33;;;;;;;;;;;3.50;99.90;;;3.35;100.00;99545.34;4878569;29;20288;-74
2021/12/09 07:00:01;;;;;;;;;;;3.60;99.90;;;3.32;100.00;99541.91;4892893;29;19931;-74
2021/12/09 07:02:28;;;;;;;;;;;4.60;99.90;;;3.29;100.00;99545.41;4876803;29;19928;-76
2021/12/09 07:04:55;;;;;;;;;;;3.60;99.90;;;3.28;100.00;99545.41;4893017;29;19932;-75
2021/12/09 07:07:22;;;;;;;;;;;3.60;99.90;;;3.30;100.00;99556.69;4865497;29;19928;-75
2021/12/09 07:09:49;;;;;;;;;;;5.10;99.90;;;3.26;100.00;99558.44;4868343;29;19931;-74
2021/12/09 07:12:16;;;;;;;;;;;3.70;99.90;;;3.28;100.00;99558.41;4870299;29;19988;-74
2021/12/09 07:14:44;;;;;;;;;;;3.50;99.90;;;3.25;100.00;99556.69;4867888;29;19934;-77
2021/12/09 07:17:11;;;;;;;;;;;3.60;99.90;;;3.23;100.00;99561.06;4874854;29;19928;-74
2021/12/09 07:19:38;;;;;;;;;;;3.50;99.90;;;3.20;100.00;99553.25;4881028;29;20042;-75
2021/12/09 07:22:05;;;;;;;;;;;3.60;99.90;;;3.23;100.00;99564.50;4879713;29;19931;-74
2021/12/09 07:24:32;;;;;;;;;;;3.60;99.90;;;3.21;100.00;99545.44;4879401;29;19945;-75
2021/12/09 07:27:00;;;;;;;;;;;5.50;99.90;;;3.18;100.00;99560.19;4899003;29;19934;-75
2021/12/09 07:29:27;;;;;;;;;;;3.50;99.90;;;3.21;100.00;99555.84;4891333;29;19931;-75
2021/12/09 07:31:55;;;;;;;;;;;4.10;99.90;;;3.16;100.00;99557.63;4890987;29;20010;-74
2021/12/09 07:34:22;;;;;;;;;;;3.40;99.90;;;3.22;100.00;99560.19;4876801;29;20029;-74
2021/12/09 07:36:49;;;;;;;;;;;3.40;99.90;;;3.19;100.00;99556.72;4891008;29;19928;-75
2021/12/09 07:39:16;;;;;;;;;;;3.50;99.90;;;3.23;100.00;99548.06;4875510;29;19950;-74
2021/12/09 07:41:43;;;;;;;;;;;3.40;99.90;;;3.23;100.00;99551.50;4891088;29;19927;-75
2021/12/09 07:44:11;;;;;;;;;;;3.60;99.90;;;3.24;100.00;99536.78;4893081;29;19927;-75
2021/12/09 07:46:38;;;;;;;;;;;4.40;99.90;;;3.17;100.00;99548.06;4861098;29;20011;-74
2021/12/09 07:49:06;;;;;;;;;;;3.90;99.90;;;3.20;100.00;99538.53;4871733;29;19934;-74
2021/12/09 07:51:33;;;;;;;;;;;3.50;99.90;;;3.22;100.00;99548.94;4871449;29;20026;-75
2021/12/09 07:54:02;;;;;;;;;;;3.90;99.90;;;3.23;100.00;99556.69;4893299;29;19927;-74
2021/12/09 07:56:29;;;;;;;;;;;3.40;99.90;;;3.26;100.00;99556.66;4894976;29;19954;-75
2021/12/09 07:58:56;;;;;;;;;;;3.30;99.90;;;3.24;100.00;99547.19;4909169;29;20355;-74
2021/12/09 08:01:23;;;;;;;;;;;5.30;99.90;;;3.24;100.00;99563.63;4893552;29;19932;-74
2021/12/09 08:03:51;;;;;;;;;;;3.40;99.90;;;3.30;100.00;99562.72;4880986;29;19923;-74
2021/12/09 08:06:18;;;;;;;;;;;5.50;99.90;;;3.32;100.00;99567.94;4889536;29;20046;-74
2021/12/09 08:08:45;;;;;;;;;;;3.50;99.90;;;3.32;100.00;99579.16;4875997;29;20034;-74
2021/12/09 08:11:13;;;;;;;;;;;3.60;99.90;;;3.35;100.00;99575.69;4856981;29;20361;-77
2021/12/09 08:13:40;;;;;;;;;;;3.80;99.90;;;3.34;100.00;99579.19;4855723;29;19984;-75
2021/12/09 08:16:07;;;;;;;;;;;5.00;99.90;;;3.47;100.00;99577.34;4855596;29;19928;-74
2021/12/09 08:18:53;;;;;;;;;;;3.50;99.90;;;3.50;100.00;99586.00;4856105;29;19928;-74
2021/12/09 08:21:21;;;;;;;;;;;4.80;99.90;;;3.57;100.00;99581.59;4883339;29;19927;-75
2021/12/09 08:23:49;;;;;;;;;;;3.70;99.90;;;3.58;100.00;99583.31;4889654;29;20366;-73
2021/12/09 08:26:16;;;;;;;;;;;3.80;99.90;;;3.53;100.00;99598.97;4888774;29;19935;-75
2021/12/09 08:28:43;;;;;;;;;;;3.80;99.90;;;3.63;100.00;99602.34;4889535;29;19970;-74
2021/12/09 08:31:10;;;;;;;;;;;3.70;99.90;;;3.62;100.00;99616.25;4864737;29;19962;-74
2021/12/09 08:33:37;;;;;;;;;;;4.60;99.90;;;3.62;100.00;99621.44;4839841;29;20326;-75
2021/12/09 08:36:20;;;;;;;;;;;3.50;99.90;;;3.68;100.00;99612.72;4876077;29;19927;-74
2021/12/09 08:38:47;;;;;;;;;;;3.80;99.90;;;3.80;100.00;99627.38;4872085;29;20472;-74
2021/12/09 08:41:15;;;;;;;;;;;4.00;99.90;;;3.80;100.00;99619.56;4875565;29;19927;-73
2021/12/09 08:43:42;;;;;;;;;;;3.90;99.90;;;3.91;100.00;99622.09;4889821;29;19930;-75
2021/12/09 08:46:10;;;;;;;;;;;5.40;99.90;;;3.90;100.00;99616.03;4889845;29;20018;-74
2021/12/09 08:48:37;;;;;;;;;;;4.00;99.90;;;3.89;100.00;99623.81;4873540;29;19924;-75
2021/12/09 08:51:04;;;;;;;;;;;4.00;99.90;;;3.88;100.00;99635.13;4904551;29;20010;-75
2021/12/09 08:53:31;;;;;;;;;;;4.10;99.90;;;3.88;100.00;99640.31;4874741;29;19928;-75
2021/12/09 08:55:58;;;;;;;;;;;6.20;99.90;;;3.92;100.00;99648.09;4840132;29;19927;-76
2021/12/09 08:58:28;;;;;;;;;;;4.10;99.90;;;3.94;100.00;99646.34;4887711;29;20041;-75
2021/12/09 09:00:57;;;;;;;;;;;4.10;99.90;;;4.02;100.00;99643.69;4874972;29;19934;-76
2021/12/09 09:03:25;;;;;;;;;;;4.10;99.90;;;4.00;100.00;99644.59;4859208;29;20026;-75
2021/12/09 09:05:52;;;;;;;;;;;4.80;99.90;;;4.03;100.00;99648.00;4890423;29;19963;-77
2021/12/09 09:08:19;;;;;;;;;;;4.20;99.90;;;4.06;100.00;99647.13;4890991;29;20022;-77
2021/12/09 09:10:46;;;;;;;;;;;5.60;99.90;;;4.10;100.00;99654.91;4889056;29;19931;-77
2021/12/09 09:13:14;;;;;;;;;;;4.20;99.90;;;4.08;100.00;99650.56;4873549;29;20036;-78
2021/12/09 09:15:41;;;;;;;;;;;4.10;99.90;;;4.11;100.00;99651.41;4841061;29;19928;-76
2021/12/09 09:18:09;;;;;;;;;;;4.00;99.90;;;4.22;100.00;99653.06;4855925;29;19930;-77
2021/12/09 09:20:39;;;;;;;;;;;4.20;99.90;;;4.18;100.00;99649.63;4857192;29;19932;-77
2021/12/09 09:23:13;;;;;;;;;;;4.00;99.90;;;4.24;100.00;99656.53;4856112;29;20028;-77
2021/12/09 09:25:41;;;;;;;;;;;4.30;99.90;;;4.20;100.00;99658.28;4856248;29;19977;-76
2021/12/09 09:28:09;;;;;;;;;;;4.30;99.90;;;4.29;100.00;99659.94;4871534;29;19935;-77
2021/12/09 09:30:40;;;;;;;;;;;4.20;99.90;;;4.32;100.00;99666.84;4871645;29;19932;-76
2021/12/09 09:33:10;;;;;;;;;;;5.30;99.90;;;4.34;100.00;99663.34;4852256;29;19931;-76
2021/12/09 09:35:39;;;;;;;;;;;4.30;99.90;;;4.39;100.00;99660.69;4855466;29;19928;-76
2021/12/09 09:38:07;;;;;;;;;;;4.80;99.90;;;4.30;100.00;99666.88;4870978;29;20027;-77
2021/12/09 09:41:06;;;;;;;;;;;4.50;99.90;;;4.32;100.00;99666.84;4873258;29;20438;-76
2021/12/09 09:46:19;;;;;;;;;;;4.90;99.90;;;4.44;100.00;99671.06;4880483;29;19924;-76
2021/12/09 09:48:49;;;;;;;;;;;4.30;99.90;;;4.45;100.00;99672.81;4874169;29;19928;-75
2021/12/09 09:51:19;;;;;;;;;;;4.40;99.90;;;4.50;100.00;99669.28;4871875;29;19932;-76
2021/12/09 09:53:47;;;;;;;;;;;4.50;99.90;;;4.46;100.00;99666.72;4884371;29;20500;-79
2021/12/09 09:56:19;;;;;;;;;;;4.20;99.90;;;4.52;100.00;99664.91;4882119;29;19935;-79
2021/12/09 09:58:50;;;;;;;;;;;3.90;99.90;;;4.64;100.00;99663.91;4855971;29;19924;-79
2021/12/09 10:01:17;;;;;;;;;;;6.50;99.90;;;4.57;100.00;99664.00;4877948;29;19934;-80
2021/12/09 10:03:47;;;;;;;;;;;4.90;99.90;;;4.64;100.00;99661.31;4879063;29;19924;-77
2021/12/09 10:06:16;;;;;;;;;;;4.80;99.90;;;4.71;100.00;99682.09;4867082;29;19924;-73
2021/12/09 10:08:44;;;;;;;;;;;4.70;99.90;;;4.71;100.00;99684.72;4869513;29;19944;-76
2021/12/09 10:11:11;;;;;;;;;;;4.80;99.90;;;4.75;100.00;99684.63;4873761;29;19930;-74
2021/12/09 10:13:41;;;;;;;;;;;4.60;99.90;;;4.78;100.00;99684.63;4872635;29;19932;-74
2021/12/09 10:16:21;;;;;;;;;;;4.70;99.90;;;4.68;100.00;99686.47;4873183;29;19942;-73
2021/12/09 10:18:51;;;;;;;;;;;4.80;99.90;;;4.82;100.00;99681.09;4872626;29;19932;-73
2021/12/09 10:21:29;;;;;;;;;;;4.80;99.90;;;4.88;100.00;99685.38;4874316;29;19935;-73
2021/12/09 10:23:58;;;;;;;;;;;4.70;99.90;;;4.81;100.00;99681.97;4867459;29;20026;-73
2021/12/09 10:26:38;;;;;;;;;;;4.70;99.90;;;4.81;100.00;99673.28;4854631;29;19928;-74
2021/12/09 10:29:08;;;;;;;;;;;4.90;99.90;;;4.81;100.00;99668.06;4857130;29;19956;-74
2021/12/09 10:31:41;;;;;;;;;;;4.80;99.90;;;4.77;100.00;99669.88;4867665;29;20050;-74
2021/12/09 10:37:10;;;;;;;;;;;4.80;99.90;;;4.81;100.00;99675.88;4870418;29;19979;-74
2021/12/09 10:39:46;;;;;;;;;;;4.90;99.90;;;4.89;100.00;99679.28;4868370;29;19924;-74
2021/12/09 10:42:23;;;;;;;;;;;4.80;99.90;;;4.90;100.00;99670.56;4875287;29;20022;-74
2021/12/09 10:45:04;;;;;;;;;;;4.80;99.90;;;5.02;100.00;99669.56;4874152;29;19931;-74
2021/12/09 10:47:52;;;;;;;;;;;4.80;99.90;;;5.06;100.00;99667.78;4879520;29;20013;-74
2021/12/09 10:55:47;;;;;;;;;;;5.50;99.90;;;4.89;100.00;99670.59;4895491;29;19931;-74
2021/12/09 10:58:17;;;;;;;;;;;5.00;99.90;;;5.10;100.00;99678.16;4896572;29;20296;-75
2021/12/09 11:00:53;;;;;;;;;;;3.10;99.90;;;5.00;100.00;99684.34;4895407;29;20612;-74
2021/12/09 11:03:26;;;;;;;;;;;5.00;99.90;;;5.00;100.00;99662.66;4895752;29;19958;-74
2021/12/09 11:05:57;;;;;;;;;;;5.20;99.90;;;5.08;100.00;99666.88;4905443;29;20309;-74
2021/12/09 11:08:29;;;;;;;;;;;5.50;99.90;;;5.13;100.00;99671.16;4895024;29;19975;-74
2021/12/09 11:11:01;;;;;;;;;;;5.00;99.90;;;5.10;100.00;99659.91;4894778;29;19927;-74
2021/12/09 11:13:55;;;;;;;;;;;4.90;99.90;;;5.25;100.00;99661.44;4894253;29;20384;-74
2021/12/09 11:16:38;;;;;;;;;;;5.20;99.90;;;5.22;100.00;99658.88;4876854;29;19952;-76
2021/12/09 11:19:09;;;;;;;;;;;5.10;99.90;;;5.22;100.00;99661.47;4869625;29;20019;-74
2021/12/09 11:21:41;;;;;;;;;;;4.90;99.90;;;5.22;100.00;99678.88;4859347;29;19978;-75
2021/12/09 11:24:15;;;;;;;;;;;5.60;99.90;;;5.14;100.00;99659.84;4888379;29;20304;-76
2021/12/09 11:27:01;;;;;;;;;;;5.00;99.90;;;5.17;100.00;99655.47;4872922;29;20393;-75
2021/12/09 11:29:35;;;;;;;;;;;4.90;99.90;;;5.23;100.00;99660.59;4845925;29;19935;-74
2021/12/09 11:32:21;;;;;;;;;;;5.00;99.90;;;5.32;100.00;99662.22;4872645;29;19972;-76
2021/12/09 11:35:05;;;;;;;;;;;5.00;99.90;;;5.36;100.00;99663.88;4878882;29;19928;-76
2021/12/09 11:40:32;;;;;;;;;;;5.70;99.90;;;5.44;100.00;99642.06;4877735;29;19924;-77
2021/12/09 11:43:01;;;;;;;;;;;5.20;99.90;;;5.51;100.00;99652.38;4880049;29;19947;-78
2021/12/09 11:45:41;;;;;;;;;;;5.30;99.90;;;5.62;100.00;99656.56;4862556;29;19939;-78
2021/12/09 11:48:11;;;;;;;;;;;6.20;99.90;;;5.61;100.00;99647.88;4874195;29;19927;-78
2021/12/09 11:50:46;;;;;;;;;;;5.20;99.90;;;5.52;100.00;99658.44;4895400;29;20429;-77
2021/12/09 11:53:16;;;;;;;;;;;5.30;99.90;;;5.49;100.00;99653.28;4880208;29;20401;-77